Terminal Aerodrome Forecast
Issued by NWS Wichita, KS

Home | Current Version | Previous Version | Text Only | Print | Product List | Glossary Off
Versions: 1 2 3 4 5 6 7 8 9 10 11 12 13 14 15 16 17 18 19 20

000
FTUS43 KICT 152349
TAFICT
TAF
KICT 152349Z 1600/1624 06005KT P6SM OVC005
     FM160200 07006KT 3SM SHRA BR OVC005
     FM160800 08006KT 2SM SHRA BR OVC004
      TEMPO 1608/1612 1/2SM FG
     FM161200 03009KT 3/4SM -RA BR OVC003
     FM161800 34012KT P6SM OVC003=

USA.gov is the U.S. government's official web portal to all federal, state and local government web resources and services.